Time;durP1;ratioP1;P1;durP2;ratioP2;P2;SDS_P1;SDS_P2;PMS_P1;PMS_P2;Temp;Humidity;BMP_temperature;BMP_pressure;BME280_temperature;BME280_humidity;BME280_pressure;Samples;Min_cycle;Max_cycle;Signal;HPM_P1;HPM_P2
2020/12/01 00:02:18;;;;;;;47.58;24.83;;;0.00;99.90;;;;;;5012289;28;20541;-72
2020/12/01 00:04:44;;;;;;;51.50;26.58;;;0.00;99.90;;;;;;5011142;28;20058;-75
2020/12/01 00:07:10;;;;;;;48.17;23.73;;;0.00;99.90;;;;;;4990319;28;20084;-73
2020/12/01 00:09:36;;;;;;;48.05;26.38;;;0.00;99.90;;;;;;5011653;28;20030;-77
2020/12/01 00:12:02;;;;;;;49.83;25.48;;;-0.10;99.90;;;;;;5011413;28;20510;-73
2020/12/01 00:14:28;;;;;;;52.78;28.17;;;-0.10;99.90;;;;;;5011665;28;20057;-73
2020/12/01 00:16:53;;;;;;;54.83;27.70;;;-0.10;99.90;;;;;;4987951;28;20587;-73
2020/12/01 00:19:19;;;;;;;57.88;28.10;;;-0.10;99.90;;;;;;5010401;28;20060;-73
2020/12/01 00:21:45;;;;;;;53.65;26.88;;;-0.10;99.90;;;;;;5010669;28;20068;-73
2020/12/01 00:24:12;;;;;;;53.47;26.48;;;-0.10;99.90;;;;;;5011596;28;20033;-73
2020/12/01 00:26:38;;;;;;;59.05;28.63;;;-0.10;99.90;;;;;;4993224;28;20062;-76
2020/12/01 00:29:05;;;;;;;57.33;27.85;;;-0.10;99.90;;;;;;5011669;28;20057;-73
2020/12/01 00:31:39;;;;;;;52.55;27.35;;;-0.20;99.90;;;;;;4994099;28;20096;-73
2020/12/01 00:34:06;;;;;;;59.05;29.27;;;-0.10;99.90;;;;;;5000854;28;20038;-73
2020/12/01 00:36:32;;;;;;;62.72;29.05;;;-0.20;99.90;;;;;;5000012;28;20137;-73
2020/12/01 00:38:57;;;;;;;63.53;30.13;;;-0.20;99.90;;;;;;5009787;28;20860;-74
2020/12/01 00:41:23;;;;;;;58.20;29.33;;;-0.20;99.90;;;;;;5011532;28;20109;-73
2020/12/01 00:43:49;;;;;;;62.15;28.90;;;-0.20;99.90;;;;;;5010262;28;20348;-73
2020/12/01 00:46:15;;;;;;;58.88;29.20;;;-0.20;99.90;;;;;;5009830;28;20041;-75
2020/12/01 00:48:40;;;;;;;57.00;28.95;;;-0.20;99.90;;;;;;5010561;28;20125;-74
2020/12/01 00:51:06;;;;;;;56.28;27.52;;;-0.20;99.90;;;;;;5011196;28;20029;-74
2020/12/01 00:53:32;;;;;;;62.33;28.73;;;-0.20;99.90;;;;;;4994679;28;20040;-73
2020/12/01 00:55:58;;;;;;;60.10;29.10;;;-0.20;99.90;;;;;;4996356;28;20035;-74
2020/12/01 00:58:23;;;;;;;61.70;28.10;;;-0.20;99.90;;;;;;5011858;28;20479;-74
2020/12/01 01:00:49;;;;;;;62.10;27.48;;;-0.10;99.90;;;;;;4993372;28;20037;-73
2020/12/01 01:03:15;;;;;;;67.60;30.50;;;-0.10;99.90;;;;;;5011706;28;20021;-74
2020/12/01 01:05:41;;;;;;;66.55;29.10;;;0.00;99.90;;;;;;5010131;28;20034;-75
2020/12/01 01:08:07;;;;;;;71.38;29.67;;;0.00;99.90;;;;;;5010203;28;20026;-74
2020/12/01 01:10:33;;;;;;;73.00;31.25;;;0.00;99.90;;;;;;5010844;28;20486;-75
2020/12/01 01:13:00;;;;;;;75.75;32.60;;;0.00;99.90;;;;;;5010164;28;20064;-75
2020/12/01 01:15:30;;;;;;;90.20;33.88;;;0.10;99.90;;;;;;5010905;28;20022;-76
2020/12/01 01:17:57;;;;;;;115.28;37.88;;;0.10;99.90;;;;;;5004484;28;20032;-76
2020/12/01 01:20:23;;;;;;;145.13;39.42;;;0.10;99.90;;;;;;5003193;28;20105;-78
2020/12/01 01:22:48;;;;;;;151.40;40.63;;;0.10;99.90;;;;;;5010141;28;20117;-78
2020/12/01 01:25:15;;;;;;;130.25;38.65;;;0.10;99.90;;;;;;5010840;28;20467;-79
2020/12/01 01:27:40;;;;;;;134.27;41.30;;;0.10;99.90;;;;;;5009778;28;20049;-78
2020/12/01 01:30:07;;;;;;;156.18;39.97;;;0.10;99.90;;;;;;5010363;28;20029;-82
2020/12/01 01:32:33;;;;;;;135.30;40.47;;;0.10;99.90;;;;;;4993381;28;20391;-83
2020/12/01 01:34:59;;;;;;;214.63;45.88;;;0.10;99.90;;;;;;4992583;28;20030;-84
2020/12/01 01:37:25;;;;;;;214.38;45.72;;;0.20;99.90;;;;;;5010657;28;20022;-84
2020/12/01 01:39:50;;;;;;;236.25;46.83;;;0.20;99.90;;;;;;5010004;28;20042;-87
2020/12/01 01:42:16;;;;;;;295.83;51.78;;;0.20;99.90;;;;;;4993069;28;20048;-87
2020/12/01 01:44:42;;;;;;;203.70;44.90;;;0.20;99.90;;;;;;5009559;28;20034;-83
2020/12/01 01:47:24;;;;;;;206.98;45.30;;;0.20;99.90;;;;;;5010671;28;20385;-86
2020/12/01 01:49:56;;;;;;;323.20;52.80;;;0.20;99.90;;;;;;5009658;28;20041;-88
2020/12/01 01:52:28;;;;;;;333.10;50.97;;;0.30;99.90;;;;;;5005556;28;20045;-85
2020/12/01 01:54:59;;;;;;;289.77;52.15;;;0.30;99.90;;;;;;5002820;28;20034;-86
2020/12/01 01:57:26;;;;;;;272.05;49.30;;;0.30;99.90;;;;;;5010155;28;20034;-84
2020/12/01 01:59:52;;;;;;;313.95;49.83;;;0.30;99.90;;;;;;5006458;28;20060;-86
2020/12/01 02:02:18;;;;;;;158.80;39.80;;;0.30;99.90;;;;;;5003625;28;20511;-83
2020/12/01 02:04:44;;;;;;;270.80;49.33;;;0.30;99.90;;;;;;4992211;28;20057;-85
2020/12/01 02:07:10;;;;;;;239.00;47.63;;;0.40;99.90;;;;;;5005233;28;20057;-85
2020/12/01 02:09:51;;;;;;;344.63;52.78;;;0.40;99.90;;;;;;5010112;28;20149;-76
2020/12/01 02:12:19;;;;;;;417.13;56.50;;;0.40;99.90;;;;;;5010080;28;20042;-78
2020/12/01 02:15:10;;;;;;;209.90;44.15;;;0.40;99.90;;;;;;5009629;28;20064;-83
2020/12/01 02:17:37;;;;;;;411.75;55.88;;;0.40;99.90;;;;;;4983389;28;20390;-76
2020/12/01 02:20:10;;;;;;;431.00;57.08;;;0.50;99.90;;;;;;5009988;28;20160;-84
2020/12/01 02:22:36;;;;;;;344.85;53.75;;;0.50;99.90;;;;;;5009294;28;20518;-76
2020/12/01 02:25:03;;;;;;;352.65;52.60;;;0.40;99.90;;;;;;5010374;28;20037;-85
2020/12/01 02:27:29;;;;;;;369.75;52.75;;;0.50;99.90;;;;;;5009901;28;20040;-84
2020/12/01 02:29:57;;;;;;;376.92;52.40;;;0.50;99.90;;;;;;5009486;28;20466;-81
2020/12/01 02:32:24;;;;;;;403.95;58.90;;;0.50;99.90;;;;;;5010053;28;20037;-86
2020/12/01 02:34:53;;;;;;;460.15;62.40;;;0.50;99.90;;;;;;4999988;28;20029;-81
2020/12/01 02:37:22;;;;;;;246.85;48.72;;;0.50;99.90;;;;;;5017795;28;20424;-86
2020/12/01 02:39:48;;;;;;;391.63;54.47;;;0.50;99.90;;;;;;5012532;28;20588;-84
2020/12/01 02:42:17;;;;;;;417.60;56.47;;;0.50;99.90;;;;;;5011159;28;20029;-85
2020/12/01 02:44:43;;;;;;;263.35;49.67;;;0.50;99.90;;;;;;5009797;28;20026;-86
2020/12/01 02:47:09;;;;;;;448.20;56.47;;;0.50;99.90;;;;;;5009371;28;20034;-85
2020/12/01 02:49:36;;;;;;;372.55;50.88;;;0.50;99.90;;;;;;5010270;28;20091;-77
2020/12/01 02:52:03;;;;;;;246.60;45.85;;;0.50;99.90;;;;;;5009102;28;20084;-83
2020/12/01 02:54:29;;;;;;;380.30;53.13;;;0.50;99.90;;;;;;5010039;28;20037;-87
2020/12/01 02:56:55;;;;;;;385.83;49.38;;;0.50;99.90;;;;;;5005847;28;20022;-86
2020/12/01 02:59:20;;;;;;;437.00;56.15;;;0.50;99.90;;;;;;5008797;28;20061;-86
2020/12/01 03:01:47;;;;;;;459.25;56.20;;;0.50;99.90;;;;;;4984298;28;20054;-86
2020/12/01 03:04:13;;;;;;;364.63;52.42;;;0.50;99.90;;;;;;5009915;28;20029;-85
2020/12/01 03:06:39;;;;;;;373.38;53.55;;;0.50;99.90;;;;;;5011325;28;20029;-79
2020/12/01 03:09:10;;;;;;;584.17;63.42;;;0.50;99.90;;;;;;5013102;28;20040;-85
2020/12/01 03:11:36;;;;;;;542.58;59.45;;;0.50;99.90;;;;;;5013071;28;20025;-77
2020/12/01 03:14:02;;;;;;;467.98;58.28;;;0.40;99.90;;;;;;5012213;28;20391;-84
2020/12/01 03:16:28;;;;;;;423.27;48.92;;;0.40;99.90;;;;;;5010898;28;20108;-84
2020/12/01 03:18:53;;;;;;;428.15;53.95;;;0.40;99.90;;;;;;4991308;28;20129;-86
2020/12/01 03:21:19;;;;;;;324.73;46.33;;;0.40;99.90;;;;;;5012849;28;20460;-81
2020/12/01 03:23:45;;;;;;;357.90;49.05;;;0.50;99.90;;;;;;4994530;28;20025;-83
2020/12/01 03:26:13;;;;;;;447.63;53.45;;;0.50;99.90;;;;;;5012528;28;20030;-82
2020/12/01 03:28:39;;;;;;;238.30;38.67;;;0.50;99.90;;;;;;5012792;28;20092;-76
2020/12/01 03:31:05;;;;;;;432.00;53.00;;;0.60;99.90;;;;;;5012860;28;20476;-79
2020/12/01 03:33:31;;;;;;;449.13;48.65;;;0.60;99.90;;;;;;5012530;28;20065;-80
2020/12/01 03:35:56;;;;;;;398.08;46.70;;;0.60;99.90;;;;;;5012007;28;20088;-80
2020/12/01 03:38:22;;;;;;;451.65;52.05;;;0.70;99.90;;;;;;5012698;28;20037;-81
2020/12/01 03:40:48;;;;;;;410.77;49.63;;;0.70;99.90;;;;;;5012180;28;20045;-83
2020/12/01 03:43:14;;;;;;;293.65;42.50;;;0.70;99.90;;;;;;4995177;28;20103;-83
2020/12/01 03:45:40;;;;;;;434.60;49.50;;;0.70;99.90;;;;;;5009260;28;20050;-75
2020/12/01 03:48:06;;;;;;;431.52;49.15;;;0.80;99.90;;;;;;5010640;28;20458;-79
2020/12/01 03:50:32;;;;;;;269.27;41.45;;;0.80;99.90;;;;;;5012855;28;20056;-82
2020/12/01 03:52:58;;;;;;;310.60;46.40;;;0.80;99.90;;;;;;5011618;28;20021;-85
2020/12/01 03:55:25;;;;;;;344.33;46.15;;;0.90;99.90;;;;;;5012356;28;20117;-83
2020/12/01 03:57:51;;;;;;;274.23;43.58;;;0.90;99.90;;;;;;5011738;28;20487;-84
2020/12/01 04:00:20;;;;;;;361.10;44.88;;;0.90;99.90;;;;;;5012474;28;20167;-87
2020/12/01 04:02:46;;;;;;;189.80;36.38;;;0.90;99.90;;;;;;5012057;28;20483;-83
2020/12/01 04:05:13;;;;;;;306.73;47.42;;;0.90;99.90;;;;;;5012302;28;20430;-83
2020/12/01 04:07:38;;;;;;;334.80;43.97;;;1.00;99.90;;;;;;5011866;28;20041;-77
2020/12/01 04:10:05;;;;;;;326.95;45.30;;;1.00;99.90;;;;;;5012002;28;20037;-84
2020/12/01 04:12:32;;;;;;;247.43;42.22;;;1.00;99.90;;;;;;5012401;28;20049;-86
2020/12/01 04:14:57;;;;;;;243.35;40.10;;;1.00;99.90;;;;;;4997570;28;20092;-82
2020/12/01 04:17:23;;;;;;;364.30;49.45;;;1.00;99.90;;;;;;5025328;28;20033;-84
2020/12/01 04:19:50;;;;;;;283.40;42.78;;;1.00;99.90;;;;;;5015001;28;20077;-84
2020/12/01 04:22:16;;;;;;;346.92;47.83;;;1.00;99.90;;;;;;4995192;28;20034;-86
2020/12/01 04:24:42;;;;;;;308.63;44.63;;;1.10;99.90;;;;;;5011479;28;20037;-86
2020/12/01 04:27:12;;;;;;;267.58;44.88;;;1.10;99.90;;;;;;5011905;28;20034;-87
2020/12/01 04:29:38;;;;;;;389.33;48.92;;;1.10;99.90;;;;;;5011769;28;20037;-78
2020/12/01 04:32:05;;;;;;;325.88;45.40;;;1.10;99.90;;;;;;5011230;28;20033;-86
2020/12/01 04:34:32;;;;;;;409.85;48.47;;;1.10;99.90;;;;;;4993591;28;20026;-86
2020/12/01 04:36:58;;;;;;;266.13;42.28;;;1.10;99.90;;;;;;4993419;28;20104;-85
2020/12/01 04:39:24;;;;;;;258.90;40.55;;;1.10;99.90;;;;;;5011654;28;20041;-84
2020/12/01 04:41:51;;;;;;;291.30;45.28;;;1.10;99.90;;;;;;5002849;28;20056;-85
2020/12/01 04:44:25;;;;;;;339.45;47.88;;;1.20;99.90;;;;;;4993990;28;20036;-84
2020/12/01 04:46:53;;;;;;;268.13;40.88;;;1.20;99.90;;;;;;5010807;28;20042;-84
2020/12/01 04:49:24;;;;;;;319.45;45.53;;;1.20;99.90;;;;;;4993751;28;20048;-87
2020/12/01 04:52:08;;;;;;;242.10;42.28;;;1.20;99.90;;;;;;5010934;28;20030;-88
2020/12/01 04:54:52;;;;;;;312.98;43.95;;;1.20;99.90;;;;;;5011426;28;20026;-88
2020/12/01 04:57:39;;;;;;;401.52;47.47;;;1.20;99.90;;;;;;5011288;28;20412;-90
2020/12/01 05:00:14;;;;;;;281.52;44.88;;;1.20;99.90;;;;;;5011688;28;20046;-87
2020/12/01 05:03:01;;;;;;;298.30;44.05;;;1.30;99.90;;;;;;5010491;28;20471;-77
2020/12/01 05:08:46;;;;;;;181.73;34.38;;;1.30;99.90;;;;;;4980290;28;20054;-84
2020/12/01 05:11:42;;;;;;;247.80;37.67;;;1.30;99.90;;;;;;4996000;28;20057;-85
2020/12/01 05:14:29;;;;;;;268.38;34.67;;;1.30;99.90;;;;;;5010729;28;20042;-84
2020/12/01 05:17:40;;;;;;;279.10;36.42;;;1.40;99.90;;;;;;4992660;28;20060;-82
2020/12/01 05:20:07;;;;;;;220.88;31.70;;;1.40;99.90;;;;;;5009074;28;20030;-82
2020/12/01 05:22:33;;;;;;;313.13;37.53;;;1.40;99.90;;;;;;5010913;28;20038;-82
2020/12/01 05:24:58;;;;;;;253.23;36.33;;;1.40;99.90;;;;;;4992715;28;20113;-81
2020/12/01 05:27:35;;;;;;;235.73;32.40;;;1.40;99.90;;;;;;5010835;28;20038;-80
2020/12/01 05:30:06;;;;;;;245.25;32.40;;;1.40;99.90;;;;;;4992041;28;20065;-80
2020/12/01 05:32:38;;;;;;;280.48;35.83;;;1.40;99.90;;;;;;5011056;28;20088;-80
2020/12/01 05:35:19;;;;;;;248.43;34.42;;;1.40;99.90;;;;;;5010264;28;20127;-82
2020/12/01 05:38:18;;;;;;;277.77;37.63;;;1.40;99.90;;;;;;5010144;28;20036;-80
2020/12/01 05:40:50;;;;;;;299.48;39.75;;;1.40;99.90;;;;;;4994790;28;20068;-80
2020/12/01 05:43:37;;;;;;;373.33;47.53;;;1.30;99.90;;;;;;5010376;28;20507;-79
2020/12/01 05:46:05;;;;;;;375.40;48.65;;;1.30;99.90;;;;;;5010387;28;20034;-80
2020/12/01 05:48:45;;;;;;;304.92;44.53;;;1.30;99.90;;;;;;5010409;28;20070;-78
2020/12/01 05:51:20;;;;;;;440.88;52.92;;;1.30;99.90;;;;;;5010279;28;20041;-83
2020/12/01 05:53:56;;;;;;;337.50;46.72;;;1.20;99.90;;;;;;5009835;28;20382;-79
2020/12/01 05:56:22;;;;;;;377.35;49.28;;;1.20;99.90;;;;;;5014266;28;20364;-75
2020/12/01 05:59:05;;;;;;;306.20;45.13;;;1.20;99.90;;;;;;5011217;28;20076;-75
2020/12/01 06:01:42;;;;;;;336.10;47.75;;;1.20;99.90;;;;;;5010245;28;20037;-80
2020/12/01 06:04:12;;;;;;;325.70;47.65;;;1.20;99.90;;;;;;5010237;28;20141;-79
2020/12/01 06:06:49;;;;;;;417.30;51.35;;;1.20;99.90;;;;;;5002695;28;20030;-75
2020/12/01 06:09:41;;;;;;;271.25;41.00;;;1.20;99.90;;;;;;5009835;28;20425;-79
2020/12/01 06:12:31;;;;;;;311.92;45.33;;;1.20;99.90;;;;;;4992111;28;20029;-78
2020/12/01 06:15:04;;;;;;;334.55;42.83;;;1.20;99.90;;;;;;5008588;28;20165;-78
2020/12/01 06:17:58;;;;;;;306.52;42.40;;;1.20;99.90;;;;;;5008735;28;20084;-77
2020/12/01 06:20:40;;;;;;;332.77;44.72;;;1.20;99.90;;;;;;5010133;28;20046;-77
2020/12/01 06:23:23;;;;;;;321.10;42.25;;;1.20;99.90;;;;;;5010353;28;20064;-78
2020/12/01 06:25:54;;;;;;;318.30;43.15;;;1.20;99.90;;;;;;5009206;28;20045;-78
2020/12/01 06:28:38;;;;;;;334.70;41.90;;;1.20;99.90;;;;;;5004097;28;20034;-77
2020/12/01 06:31:16;;;;;;;317.70;42.92;;;1.20;99.90;;;;;;4983692;28;20026;-78
2020/12/01 06:33:44;;;;;;;305.80;43.33;;;1.20;99.90;;;;;;5009268;28;20040;-76
2020/12/01 06:36:34;;;;;;;307.70;41.60;;;1.30;99.90;;;;;;5009993;28;20029;-79
2020/12/01 06:39:16;;;;;;;294.25;40.30;;;1.20;99.90;;;;;;5000808;28;20686;-78
2020/12/01 06:41:53;;;;;;;324.58;43.40;;;1.20;99.90;;;;;;5012198;28;20088;-77
2020/12/01 06:44:23;;;;;;;336.38;42.67;;;1.30;99.90;;;;;;4994582;28;20021;-78
2020/12/01 06:46:57;;;;;;;314.92;43.67;;;1.20;99.90;;;;;;5008248;28;20049;-79
2020/12/01 06:49:28;;;;;;;308.38;42.85;;;1.20;99.90;;;;;;5005345;28;20038;-77
2020/12/01 06:52:02;;;;;;;366.33;47.15;;;1.20;99.90;;;;;;5012823;28;20458;-78
2020/12/01 06:54:28;;;;;;;325.42;43.45;;;1.20;99.90;;;;;;5013284;28;20044;-77
2020/12/01 06:57:23;;;;;;;342.80;51.30;;;1.20;99.90;;;;;;5011946;28;20522;-79
2020/12/01 06:59:48;;;;;;;380.30;49.72;;;1.30;99.90;;;;;;5012551;28;20491;-79
2020/12/01 07:02:27;;;;;;;388.25;48.35;;;1.30;99.90;;;;;;5012988;28;20028;-80
2020/12/01 07:05:25;;;;;;;324.23;42.15;;;1.30;99.90;;;;;;5012612;28;20030;-78
2020/12/01 07:07:51;;;;;;;311.50;47.83;;;1.30;99.90;;;;;;5005577;28;20056;-88
2020/12/01 07:10:23;;;;;;;416.42;54.38;;;1.30;99.90;;;;;;5012962;28;20037;-80
2020/12/01 07:13:15;;;;;;;328.50;47.17;;;1.30;99.90;;;;;;5012507;28;20479;-78
2020/12/01 07:15:46;;;;;;;313.38;42.80;;;1.40;99.90;;;;;;5012521;28;20163;-77
2020/12/01 07:18:16;;;;;;;350.13;45.10;;;1.40;99.90;;;;;;5010098;28;20046;-81
2020/12/01 07:21:08;;;;;;;303.67;40.28;;;1.40;99.90;;;;;;5004280;28;20061;-81
2020/12/01 07:23:52;;;;;;;244.93;40.42;;;1.40;99.90;;;;;;4994535;28;20060;-83
2020/12/01 07:26:33;;;;;;;328.25;43.65;;;1.40;99.90;;;;;;5012717;28;20048;-82
2020/12/01 07:29:26;;;;;;;412.23;47.15;;;1.40;99.90;;;;;;5011655;28;20274;-84
2020/12/01 07:32:11;;;;;;;345.67;44.63;;;1.50;99.90;;;;;;5011984;28;20367;-79
2020/12/01 07:34:37;;;;;;;154.20;33.47;;;1.50;99.90;;;;;;4985769;28;20044;-79
2020/12/01 07:37:19;;;;;;;328.52;42.33;;;1.50;99.90;;;;;;5000762;28;20030;-78
2020/12/01 07:39:54;;;;;;;292.60;41.40;;;1.50;99.90;;;;;;5019201;28;20042;-78
2020/12/01 07:42:25;;;;;;;284.52;39.92;;;1.50;99.90;;;;;;5006516;28;20806;-78
2020/12/01 07:44:51;;;;;;;414.33;48.83;;;1.50;99.90;;;;;;5004412;28;20080;-78
2020/12/01 07:47:26;;;;;;;345.33;43.20;;;1.60;99.90;;;;;;5013110;28;20021;-78
2020/12/01 07:50:01;;;;;;;348.20;42.92;;;1.60;99.90;;;;;;5009005;28;20042;-78
2020/12/01 07:52:44;;;;;;;355.90;44.08;;;1.60;99.90;;;;;;5011843;28;20112;-78
2020/12/01 07:55:35;;;;;;;420.70;54.85;;;1.60;99.90;;;;;;4994291;28;20038;-79
2020/12/01 07:58:15;;;;;;;385.40;55.53;;;1.60;99.90;;;;;;5010531;28;20037;-77
2020/12/01 08:00:41;;;;;;;420.58;61.22;;;1.60;99.90;;;;;;5001078;28;20038;-77
2020/12/01 08:03:15;;;;;;;494.45;66.15;;;1.60;99.90;;;;;;5009368;28;20479;-77
2020/12/01 08:05:41;;;;;;;541.85;72.20;;;1.60;99.90;;;;;;5011653;28;20034;-77
2020/12/01 08:08:17;;;;;;;423.15;62.70;;;1.70;99.90;;;;;;5011874;28;20037;-78
2020/12/01 08:10:47;;;;;;;468.13;65.13;;;1.60;99.90;;;;;;4991641;28;20037;-77
2020/12/01 08:13:14;;;;;;;;;;;1.60;99.90;;;;;;5012574;28;20042;-78
2020/12/01 08:15:40;;;;;;;483.67;63.30;;;1.60;99.90;;;;;;4991340;28;19914;-77
2020/12/01 08:18:10;;;;;;;538.90;68.97;;;1.60;99.90;;;;;;5005691;28;20026;-78
2020/12/01 08:20:36;;;;;;;470.30;62.97;;;1.60;99.90;;;;;;5012222;28;20038;-79
2020/12/01 08:23:10;;;;;;;470.33;64.20;;;1.60;99.90;;;;;;5003118;28;20026;-78
2020/12/01 08:25:36;;;;;;;437.75;59.28;;;1.60;99.90;;;;;;5011634;28;20037;-78
2020/12/01 08:28:25;;;;;;;377.60;56.60;;;1.60;99.90;;;;;;5001412;28;20128;-79
2020/12/01 08:31:25;;;;;;;465.50;61.83;;;1.70;99.90;;;;;;5010443;28;20048;-79
2020/12/01 08:33:59;;;;;;;410.48;59.50;;;1.60;99.90;;;;;;5010703;28;20042;-78
2020/12/01 08:36:38;;;;;;;408.10;60.35;;;1.70;99.90;;;;;;5001643;28;20023;-78
2020/12/01 08:39:34;;;;;;;410.92;57.42;;;1.70;99.90;;;;;;5002970;28;20136;-78
2020/12/01 08:42:37;;;;;;;505.88;64.43;;;1.70;99.90;;;;;;5005786;28;20731;-82
2020/12/01 08:45:09;;;;;;;517.17;65.05;;;1.70;99.90;;;;;;5010076;28;20037;-84
2020/12/01 08:47:36;;;;;;;447.95;60.85;;;1.70;99.90;;;;;;4993721;28;20048;-80
2020/12/01 08:50:14;;;;;;;402.77;57.20;;;1.70;99.90;;;;;;5010331;28;20137;-80
2020/12/01 08:52:42;;;;;;;450.80;59.35;;;1.70;99.90;;;;;;4984686;28;20045;-79
2020/12/01 08:55:31;;;;;;;348.58;51.85;;;1.70;99.90;;;;;;5009385;28;20096;-80
2020/12/01 08:58:28;;;;;;;483.00;63.65;;;1.70;99.90;;;;;;5010302;28;20033;-79
2020/12/01 09:01:00;;;;;;;422.17;55.60;;;1.80;99.90;;;;;;5010976;28;20124;-82
2020/12/01 09:03:31;;;;;;;354.70;49.60;;;1.80;99.90;;;;;;5006920;28;20399;-85
2020/12/01 09:05:57;;;;;;;433.98;62.72;;;1.80;99.90;;;;;;4980657;28;20040;-82
2020/12/01 09:14:11;;;;;;;416.27;54.70;;;1.90;99.90;;;;;;5010369;28;20099;-88
2020/12/01 09:22:07;;;;;;;263.83;43.85;;;1.90;99.90;;;;;;5021848;28;20064;-82
2020/12/01 09:24:33;;;;;;;379.17;50.60;;;2.00;99.90;;;;;;5011325;28;20034;-84
2020/12/01 09:27:07;;;;;;;270.52;44.95;;;2.00;99.90;;;;;;5010050;28;20105;-84
2020/12/01 09:29:33;;;;;;;448.55;60.33;;;2.00;99.90;;;;;;5010818;28;20475;-83
2020/12/01 09:32:00;;;;;;;492.48;60.95;;;2.00;99.90;;;;;;5009654;28;20022;-85
2020/12/01 09:34:30;;;;;;;349.75;55.00;;;2.00;99.90;;;;;;5009247;28;20139;-83
2020/12/01 09:36:58;;;;;;;424.58;59.55;;;2.10;99.90;;;;;;4994068;28;20061;-89
2020/12/01 09:39:24;;;;;;;379.45;55.33;;;2.10;99.90;;;;;;5005478;28;20042;-79
2020/12/01 09:42:01;;;;;;;357.90;51.08;;;2.10;99.90;;;;;;4992130;28;20554;-83
2020/12/01 09:47:02;;;;;;;267.00;45.67;;;2.20;99.90;;;;;;5009817;28;20399;-82
2020/12/01 09:49:28;;;;;;;488.17;56.65;;;2.20;99.90;;;;;;5010748;28;20041;-85
2020/12/01 09:52:00;;;;;;;374.08;47.92;;;2.20;99.90;;;;;;5011731;28;20109;-84
2020/12/01 09:54:37;;;;;;;340.20;48.25;;;2.30;99.90;;;;;;5011426;28;20396;-84
2020/12/01 09:57:08;;;;;;;410.30;58.25;;;2.30;99.90;;;;;;5009312;28;20022;-77
2020/12/01 09:59:45;;;;;;;247.23;47.03;;;2.30;99.90;;;;;;5010087;28;20069;-82
2020/12/01 10:02:58;;;;;;;437.80;56.88;;;2.30;99.90;;;;;;4994388;28;20034;-84
2020/12/01 10:10:35;;;;;;;432.15;55.78;;;2.30;99.90;;;;;;5008658;28;20033;-83
2020/12/01 10:13:55;;;;;;;353.38;48.58;;;2.30;99.90;;;;;;4999277;28;20117;-82
2020/12/01 10:16:36;;;;;;;345.10;48.17;;;2.30;99.90;;;;;;5001809;28;20045;-83
2020/12/01 10:35:19;;;;;;;396.75;55.28;;;2.50;99.90;;;;;;5016974;28;20109;-87
2020/12/01 10:37:30;;;;;;;438.80;54.65;;;2.50;99.90;;;;;;5010616;28;20042;-89
2020/12/01 10:39:55;;;;;;;366.00;54.97;;;2.50;99.90;;;;;;5013341;28;20064;-86
2020/12/01 10:42:21;;;;;;;349.58;53.08;;;2.50;99.90;;;;;;5013788;28;20081;-85
2020/12/01 10:44:47;;;;;;;349.92;55.70;;;2.50;99.90;;;;;;5013929;28;20030;-85
2020/12/01 10:47:12;;;;;;;310.00;50.50;;;2.50;99.90;;;;;;5005023;28;20572;-84
2020/12/01 10:49:38;;;;;;;430.15;58.28;;;2.50;99.90;;;;;;4990599;28;20034;-86
2020/12/01 10:52:04;;;;;;;376.15;56.95;;;2.50;99.90;;;;;;5010045;28;20038;-80
2020/12/01 10:54:31;;;;;;;367.98;58.15;;;2.60;99.90;;;;;;5007329;28;20592;-83
2020/12/01 10:56:56;;;;;;;405.42;61.47;;;2.50;99.90;;;;;;5010673;28;20386;-83
2020/12/01 10:59:23;;;;;;;416.98;60.15;;;2.60;99.90;;;;;;4987545;28;20076;-83
2020/12/01 11:01:49;;;;;;;345.10;54.88;;;2.60;99.90;;;;;;5004075;28;20034;-83
2020/12/01 11:04:16;;;;;;;304.85;51.28;;;2.60;99.90;;;;;;5014164;28;20157;-82
2020/12/01 11:06:42;;;;;;;342.25;54.55;;;2.60;99.90;;;;;;5008997;28;20036;-78
2020/12/01 11:09:10;;;;;;;429.20;62.83;;;2.60;99.90;;;;;;5005354;28;20105;-88
2020/12/01 11:11:35;;;;;;;494.27;72.22;;;2.70;99.90;;;;;;5012070;28;20088;-81
2020/12/01 11:14:03;;;;;;;523.97;71.97;;;2.70;99.90;;;;;;5015301;28;20037;-86
2020/12/01 11:16:29;;;;;;;523.83;71.68;;;2.70;99.90;;;;;;5016210;28;20031;-78
2020/12/01 11:18:54;;;;;;;480.27;68.05;;;2.70;99.90;;;;;;5007214;28;20059;-77
2020/12/01 11:21:20;;;;;;;570.45;76.35;;;2.60;99.90;;;;;;5004632;28;20116;-78
2020/12/01 11:23:46;;;;;;;365.52;60.65;;;2.60;99.90;;;;;;5010556;28;20406;-79
2020/12/01 11:26:13;;;;;;;337.05;55.30;;;2.60;99.90;;;;;;5009148;28;20037;-79
2020/12/01 11:28:39;;;;;;;332.20;58.35;;;2.60;99.90;;;;;;5006337;28;20042;-78
2020/12/01 11:31:06;;;;;;;425.65;62.22;;;2.60;99.90;;;;;;5009433;28;20870;-80
2020/12/01 11:33:31;;;;;;;482.13;68.90;;;2.60;99.90;;;;;;5003929;28;20380;-80
2020/12/01 11:35:57;;;;;;;345.27;58.30;;;2.60;99.90;;;;;;4982733;28;20026;-80
2020/12/01 11:38:23;;;;;;;444.55;64.45;;;2.50;99.90;;;;;;5012605;28;20394;-79
2020/12/01 11:40:48;;;;;;;367.38;58.33;;;2.50;99.90;;;;;;5011040;28;20033;-80
2020/12/01 11:43:14;;;;;;;338.50;54.47;;;2.50;99.90;;;;;;5011845;28;20026;-79
2020/12/01 11:45:40;;;;;;;282.10;52.60;;;2.50;99.90;;;;;;5012137;28;20030;-79
2020/12/01 11:48:05;;;;;;;298.73;50.75;;;2.50;99.90;;;;;;5007953;28;20487;-77
2020/12/01 11:50:31;;;;;;;321.45;50.63;;;2.50;99.90;;;;;;4994520;28;20038;-79
2020/12/01 11:52:57;;;;;;;364.73;55.72;;;2.50;99.90;;;;;;5011761;28;20026;-77
2020/12/01 11:55:24;;;;;;;395.40;56.70;;;2.50;99.90;;;;;;5010096;28;20033;-77
2020/12/01 11:57:50;;;;;;;362.05;55.75;;;2.50;99.90;;;;;;5001911;28;20037;-78
2020/12/01 12:00:20;;;;;;;270.90;46.08;;;2.40;99.90;;;;;;5011982;28;20467;-77
2020/12/01 12:02:46;;;;;;;300.50;46.42;;;2.50;99.90;;;;;;5004656;28;20108;-78
2020/12/01 12:05:11;;;;;;;346.40;49.10;;;2.50;99.90;;;;;;5011497;28;20518;-77
2020/12/01 12:07:37;;;;;;;322.85;48.83;;;2.50;99.90;;;;;;5005998;28;20022;-77
2020/12/01 12:10:04;;;;;;;337.90;53.25;;;2.50;99.90;;;;;;5010435;28;20281;-77
2020/12/01 12:12:30;;;;;;;346.63;53.38;;;2.40;99.90;;;;;;5004683;28;21042;-78
2020/12/01 12:14:55;;;;;;;400.80;57.03;;;2.50;99.90;;;;;;5010613;28;20038;-77
2020/12/01 12:17:21;;;;;;;241.15;45.17;;;2.50;99.90;;;;;;4993022;28;20045;-79
2020/12/01 12:19:46;;;;;;;195.43;41.90;;;2.50;99.90;;;;;;4993238;28;20040;-81
2020/12/01 12:22:13;;;;;;;192.32;39.30;;;2.50;99.90;;;;;;5012076;28;20021;-84
2020/12/01 12:24:39;;;;;;;296.73;44.55;;;2.50;99.90;;;;;;5011923;28;20040;-78
2020/12/01 12:27:05;;;;;;;341.58;49.08;;;2.50;99.90;;;;;;5010203;28;20022;-80
2020/12/01 12:29:30;;;;;;;192.48;38.33;;;2.50;99.90;;;;;;5012258;28;20522;-81
2020/12/01 12:31:56;;;;;;;283.98;45.72;;;2.60;99.90;;;;;;5009792;28;20438;-75
2020/12/01 12:34:22;;;;;;;267.58;43.13;;;2.60;99.90;;;;;;5005837;28;20038;-79
2020/12/01 12:36:47;;;;;;;175.55;38.40;;;2.60;99.90;;;;;;5010584;28;20037;-77
2020/12/01 12:39:13;;;;;;;192.73;38.35;;;2.60;99.90;;;;;;5013296;28;20057;-81
2020/12/01 12:41:39;;;;;;;178.25;36.45;;;2.60;99.90;;;;;;5018265;28;20124;-81
2020/12/01 12:44:06;;;;;;;224.95;41.20;;;2.60;99.90;;;;;;5014886;28;20591;-82
2020/12/01 12:46:32;;;;;;;202.38;39.50;;;2.60;99.90;;;;;;5011127;28;20034;-85
2020/12/01 12:48:58;;;;;;;231.85;38.00;;;2.60;99.90;;;;;;5009634;28;20034;-79
2020/12/01 12:51:24;;;;;;;366.02;47.67;;;2.70;99.90;;;;;;5011244;28;20041;-80
2020/12/01 12:53:49;;;;;;;241.32;39.42;;;2.70;99.90;;;;;;5002572;28;20030;-80
2020/12/01 12:56:15;;;;;;;223.95;40.00;;;2.70;99.90;;;;;;5010147;28;20447;-81
2020/12/01 12:58:41;;;;;;;189.60;37.72;;;2.70;99.90;;;;;;5008826;28;20053;-87
2020/12/01 13:01:06;;;;;;;149.25;35.40;;;2.70;99.90;;;;;;5003447;28;20538;-80
2020/12/01 13:03:32;;;;;;;216.55;38.60;;;2.80;99.90;;;;;;4997338;28;20030;-81
2020/12/01 13:05:58;;;;;;;245.10;39.58;;;2.80;99.90;;;;;;5001638;28;20391;-78
2020/12/01 13:08:24;;;;;;;180.07;33.85;;;2.80;99.90;;;;;;5010668;28;20079;-79
2020/12/01 13:10:49;;;;;;;222.20;38.70;;;2.90;99.90;;;;;;5010148;28;20052;-76
2020/12/01 13:13:15;;;;;;;192.00;38.10;;;2.90;99.90;;;;;;5003520;28;20034;-80
2020/12/01 13:15:41;;;;;;;247.02;42.22;;;2.90;99.90;;;;;;5009360;28;20046;-79
2020/12/01 13:18:07;;;;;;;157.80;36.40;;;2.90;99.90;;;;;;5004383;28;20125;-81
2020/12/01 13:20:33;;;;;;;267.08;46.28;;;2.90;99.90;;;;;;5001843;28;20459;-77
2020/12/01 13:23:00;;;;;;;320.30;52.15;;;2.90;99.90;;;;;;5001095;28;20028;-79
2020/12/01 13:25:26;;;;;;;304.48;56.63;;;2.90;99.90;;;;;;5010644;28;20033;-80